createdAt,value
2022-10-31T00:01:17.681Z,101663.09
2022-10-31T00:03:44.256Z,101673.97
2022-10-31T00:06:10.765Z,101664.66
2022-10-31T00:08:37.345Z,101671.31
2022-10-31T00:11:03.943Z,101677.22
2022-10-31T00:13:30.384Z,101664.78
2022-10-31T00:15:56.751Z,101673.22
2022-10-31T00:18:23.153Z,101673.22
2022-10-31T00:20:49.493Z,101663.34
2022-10-31T00:23:15.880Z,101681.06
2022-10-31T00:25:42.343Z,101678.09
2022-10-31T00:28:12.142Z,101684.00
2022-10-31T00:30:38.546Z,101663.44
2022-10-31T00:33:06.099Z,101669.03
2022-10-31T00:35:33.225Z,101673.34
2022-10-31T00:37:59.633Z,101661.38
2022-10-31T00:40:26.318Z,101664.84
2022-10-31T00:42:52.707Z,101664.41
2022-10-31T00:45:19.591Z,101664.41
2022-10-31T00:47:46.282Z,101671.84
2022-10-31T00:50:12.690Z,101676.38
2022-10-31T00:52:39.096Z,101667.25
2022-10-31T00:55:05.545Z,101682.75
2022-10-31T00:57:31.881Z,101689.97
2022-10-31T00:59:58.310Z,101658.38
2022-10-31T01:02:24.823Z,101667.97
2022-10-31T01:04:51.340Z,101682.81
2022-10-31T01:07:17.696Z,101678.56
2022-10-31T01:09:44.063Z,101696.66
2022-10-31T01:12:10.494Z,101703.03
2022-10-31T01:14:36.977Z,101696.09
2022-10-31T01:17:03.414Z,101709.09
2022-10-31T01:19:29.856Z,101702.03
2022-10-31T01:21:56.603Z,101716.69
2022-10-31T01:24:23.004Z,101705.56
2022-10-31T01:26:49.435Z,101709.94
2022-10-31T01:29:15.937Z,101705.09
2022-10-31T01:31:42.421Z,101722.03
2022-10-31T01:34:14.322Z,101704.25
2022-10-31T01:36:41.361Z,101724.59
2022-10-31T01:39:13.714Z,101715.50
2022-10-31T01:41:43.672Z,101703.25
2022-10-31T01:44:15.742Z,101733.31
2022-10-31T01:46:45.157Z,101729.97
2022-10-31T01:49:21.985Z,101731.09
2022-10-31T01:51:59.388Z,101736.34
2022-10-31T01:54:30.941Z,101744.69
2022-10-31T01:56:58.543Z,101741.59
2022-10-31T01:59:28.438Z,101726.34
2022-10-31T02:01:55.560Z,101743.13
2022-10-31T02:04:25.310Z,101737.91
2022-10-31T02:07:00.158Z,101736.75
2022-10-31T02:09:27.909Z,101728.28
2022-10-31T02:11:58.389Z,101736.75
2022-10-31T02:14:27.789Z,101740.16
2022-10-31T02:16:55.409Z,101749.91
2022-10-31T02:19:33.583Z,101751.47
2022-10-31T02:22:11.347Z,101743.53
2022-10-31T02:25:07.107Z,101749.84
2022-10-31T02:28:15.804Z,101753.41
2022-10-31T02:30:58.896Z,101758.22
2022-10-31T02:33:42.052Z,101765.56
2022-10-31T02:36:27.372Z,101771.66
2022-10-31T02:39:07.466Z,101766.41
2022-10-31T02:41:51.919Z,101764.72
2022-10-31T02:44:36.419Z,101772.13
2022-10-31T02:47:07.908Z,101766.47
2022-10-31T02:49:58.781Z,101769.56
2022-10-31T02:52:28.079Z,101774.25
2022-10-31T02:54:54.845Z,101777.38
2022-10-31T02:57:28.060Z,101774.38
2022-10-31T02:59:59.543Z,101771.28
2022-10-31T03:02:52.565Z,101778.50
2022-10-31T03:05:31.082Z,101789.81
2022-10-31T03:08:12.655Z,101788.25
2022-10-31T03:10:53.525Z,101787.03
2022-10-31T03:13:39.827Z,101785.84
2022-10-31T03:16:15.093Z,101763.13
2022-10-31T03:18:50.635Z,101776.13
2022-10-31T03:21:43.676Z,101797.44
2022-10-31T03:24:12.407Z,101797.06
2022-10-31T03:26:45.718Z,101801.59
2022-10-31T03:29:15.780Z,101779.84
2022-10-31T03:31:59.903Z,101807.66
2022-10-31T03:34:28.424Z,101803.84
2022-10-31T03:36:58.023Z,101810.78
2022-10-31T03:39:25.385Z,101804.00
2022-10-31T03:42:00.966Z,101815.88
2022-10-31T03:44:30.298Z,101812.75
2022-10-31T03:46:57.062Z,101807.81
2022-10-31T03:49:23.865Z,101820.69
2022-10-31T03:52:14.000Z,101832.97
2022-10-31T03:54:46.382Z,101824.91
2022-10-31T03:57:22.822Z,101839.19
2022-10-31T03:59:58.968Z,101818.56
2022-10-31T04:02:31.878Z,101816.00
2022-10-31T04:04:59.944Z,101833.41
2022-10-31T04:07:34.240Z,101832.69
2022-10-31T04:10:04.693Z,101856.47
2022-10-31T04:12:33.672Z,101832.44
2022-10-31T04:15:02.616Z,101813.91
2022-10-31T04:17:32.663Z,101828.06
2022-10-31T04:20:02.157Z,101835.66
2022-10-31T04:22:28.649Z,101842.75
2022-10-31T04:24:55.301Z,101861.41
2022-10-31T04:27:21.696Z,101822.22
2022-10-31T04:29:50.725Z,101847.97
2022-10-31T04:32:17.719Z,101834.13
2022-10-31T04:34:44.091Z,101813.19
2022-10-31T04:37:10.446Z,101812.19
2022-10-31T04:39:36.833Z,101820.41
2022-10-31T04:42:03.278Z,101816.28
2022-10-31T04:44:29.787Z,101857.38
2022-10-31T04:46:56.445Z,101868.88
2022-10-31T04:49:23.059Z,101859.34
2022-10-31T04:51:49.572Z,101847.38
2022-10-31T04:54:16.002Z,101837.34
2022-10-31T04:56:42.560Z,101855.00
2022-10-31T04:59:08.923Z,101838.03
2022-10-31T05:01:35.574Z,101861.22
2022-10-31T05:04:02.301Z,101863.31
2022-10-31T05:06:28.788Z,101880.16
2022-10-31T05:08:55.326Z,101855.81
2022-10-31T05:11:21.845Z,101870.25
2022-10-31T05:13:48.209Z,101868.25
2022-10-31T05:16:14.773Z,101865.56
2022-10-31T05:18:41.465Z,101875.16
2022-10-31T05:21:08.000Z,101865.16
2022-10-31T05:23:34.392Z,101865.72
2022-10-31T05:26:00.812Z,101870.63
2022-10-31T05:28:27.355Z,101865.56
2022-10-31T05:30:53.831Z,101877.97
2022-10-31T05:33:20.165Z,101870.06
2022-10-31T05:35:46.619Z,101863.84
2022-10-31T05:38:13.006Z,101836.56
2022-10-31T05:40:39.480Z,101852.66
2022-10-31T05:43:05.896Z,101862.84
2022-10-31T05:45:32.322Z,101863.78
2022-10-31T05:48:01.343Z,101866.34
2022-10-31T05:50:30.521Z,101872.56
2022-10-31T05:52:59.062Z,101863.94
2022-10-31T05:55:26.556Z,101862.41
2022-10-31T05:57:53.854Z,101861.56
2022-10-31T06:00:20.891Z,101854.22
2022-10-31T06:02:47.433Z,101886.16
2022-10-31T06:05:14.207Z,101885.72
2022-10-31T06:07:40.657Z,101886.84
2022-10-31T06:10:09.031Z,101897.47
2022-10-31T06:12:38.487Z,101894.50
2022-10-31T06:15:06.624Z,101889.69
2022-10-31T06:17:34.185Z,101899.72
2022-10-31T06:20:00.686Z,101890.69
2022-10-31T06:22:27.616Z,101893.66
2022-10-31T06:24:54.034Z,101874.53
2022-10-31T06:27:20.499Z,101887.41
2022-10-31T06:29:47.405Z,101885.44
2022-10-31T06:32:13.907Z,101886.28
2022-10-31T06:34:41.509Z,101879.78
2022-10-31T06:37:08.677Z,101894.91
2022-10-31T06:39:35.663Z,101905.81
2022-10-31T06:42:02.707Z,101914.03
2022-10-31T06:44:29.129Z,101909.50
2022-10-31T06:46:55.874Z,101908.94
2022-10-31T06:49:22.331Z,101903.84
2022-10-31T06:51:49.984Z,101920.97
2022-10-31T06:54:16.855Z,101930.72
2022-10-31T06:56:43.344Z,101933.84
2022-10-31T06:59:09.726Z,101939.94
2022-10-31T07:01:36.194Z,101928.75
2022-10-31T07:04:02.630Z,101945.59
2022-10-31T07:06:29.002Z,101934.97
2022-10-31T07:08:58.050Z,101938.66
2022-10-31T07:11:24.649Z,101946.72
2022-10-31T07:13:51.050Z,101947.47
2022-10-31T07:16:17.532Z,101948.59
2022-10-31T07:18:44.079Z,101953.38
2022-10-31T07:21:10.532Z,101943.06
2022-10-31T07:23:36.978Z,101940.53
2022-10-31T07:26:03.429Z,101947.16
2022-10-31T07:28:29.840Z,101964.41
2022-10-31T07:30:58.151Z,101970.50
2022-10-31T07:33:26.994Z,101965.56
2022-10-31T07:35:54.095Z,101962.28
2022-10-31T07:38:20.568Z,101972.63
2022-10-31T07:40:52.112Z,101972.06
2022-10-31T07:43:18.518Z,101964.44
2022-10-31T07:45:45.054Z,101960.91
2022-10-31T07:48:11.744Z,101982.13
2022-10-31T07:50:38.167Z,101965.03
2022-10-31T07:53:09.911Z,101985.97
2022-10-31T07:55:37.045Z,101988.78
2022-10-31T07:58:08.813Z,101983.13
2022-10-31T08:00:36.908Z,101985.25
2022-10-31T08:03:08.939Z,101985.25
2022-10-31T08:05:36.444Z,101972.53
2022-10-31T08:08:04.291Z,101982.69
2022-10-31T08:10:31.383Z,101969.84
2022-10-31T08:13:03.521Z,101968.72
2022-10-31T08:15:30.233Z,101975.94
2022-10-31T08:17:56.596Z,101975.63
2022-10-31T08:20:23.328Z,101975.22
2022-10-31T08:23:02.402Z,101975.63
2022-10-31T08:25:33.862Z,101972.94
2022-10-31T08:28:04.631Z,101942.97
2022-10-31T08:30:34.691Z,101969.97
2022-10-31T08:33:13.724Z,101982.25
2022-10-31T08:35:40.790Z,101982.72
2022-10-31T08:38:08.843Z,101964.63
2022-10-31T08:40:36.453Z,101991.34
2022-10-31T08:43:08.112Z,101985.97
2022-10-31T08:45:35.382Z,101966.59
2022-10-31T08:48:05.025Z,101974.63
2022-10-31T08:50:33.714Z,101970.97
2022-10-31T08:53:10.470Z,101975.91
2022-10-31T08:55:38.245Z,101988.19
2022-10-31T08:58:07.061Z,101987.06
2022-10-31T09:00:35.095Z,101973.34
2022-10-31T09:03:04.611Z,101991.56
2022-10-31T09:05:31.929Z,101973.72
2022-10-31T09:08:00.671Z,101982.91
2022-10-31T09:10:28.664Z,101977.91
2022-10-31T09:12:58.997Z,101978.03
2022-10-31T09:15:26.518Z,101960.34
2022-10-31T09:17:53.388Z,101972.44
2022-10-31T09:20:20.596Z,101972.84
2022-10-31T09:22:47.253Z,101967.03
2022-10-31T09:25:13.776Z,101967.69
2022-10-31T09:27:40.388Z,101967.88
2022-10-31T09:30:07.400Z,101971.66
2022-10-31T09:32:33.722Z,101970.50
2022-10-31T09:35:00.181Z,101968.22
2022-10-31T09:37:26.725Z,101969.28
2022-10-31T09:39:53.140Z,101968.56
2022-10-31T09:42:48.238Z,101974.56
2022-10-31T09:45:48.514Z,101981.16
2022-10-31T09:48:14.810Z,101989.56
2022-10-31T09:50:49.799Z,101992.16
2022-10-31T09:53:37.550Z,101999.50
2022-10-31T09:56:09.024Z,101998.63
2022-10-31T09:58:44.629Z,102002.88
2022-10-31T10:01:27.717Z,102009.66
2022-10-31T10:04:00.374Z,102001.56
2022-10-31T10:06:30.609Z,102020.25
2022-10-31T10:08:57.528Z,101997.25
2022-10-31T10:11:39.601Z,101996.94
2022-10-31T10:14:05.910Z,102010.03
2022-10-31T10:16:56.915Z,102010.03
2022-10-31T10:20:06.112Z,101991.16
2022-10-31T10:22:57.510Z,101996.09
2022-10-31T10:25:28.691Z,102006.63
2022-10-31T10:28:10.455Z,101999.25
2022-10-31T10:30:42.719Z,102001.94
2022-10-31T10:33:20.684Z,101986.78
2022-10-31T10:36:02.407Z,102000.03
2022-10-31T10:38:39.336Z,102002.72
2022-10-31T10:41:13.169Z,101992.59
2022-10-31T10:43:40.354Z,101997.69
2022-10-31T10:46:28.408Z,101988.47
2022-10-31T10:49:05.633Z,101983.75
2022-10-31T10:54:55.546Z,101968.00
2022-10-31T10:57:40.504Z,101964.53
2022-10-31T11:00:43.751Z,101968.81
2022-10-31T11:03:11.647Z,101962.19
2022-10-31T11:05:43.227Z,101966.97
2022-10-31T11:08:10.008Z,101969.66
2022-10-31T11:10:36.458Z,101952.63
2022-10-31T11:13:08.285Z,101968.78
2022-10-31T11:15:49.164Z,101963.41
2022-10-31T11:20:55.872Z,101955.41
2022-10-31T11:23:24.719Z,101945.75
2022-10-31T11:25:53.987Z,101946.09
2022-10-31T11:28:20.482Z,101937.84
2022-10-31T11:30:53.862Z,101956.47
2022-10-31T11:33:22.749Z,101938.53
2022-10-31T11:35:52.102Z,101946.34
2022-10-31T11:38:25.726Z,101942.31
2022-10-31T11:40:57.450Z,101945.84
2022-10-31T11:43:24.873Z,101942.00
2022-10-31T11:45:51.810Z,101952.16
2022-10-31T11:48:25.235Z,101945.75
2022-10-31T11:50:59.059Z,101958.06
2022-10-31T11:53:31.741Z,101957.56
2022-10-31T11:56:05.940Z,101956.56
2022-10-31T11:58:32.396Z,101944.38
2022-10-31T12:00:59.734Z,101939.84
2022-10-31T12:03:50.209Z,101929.75
2022-10-31T12:06:31.754Z,101911.97
2022-10-31T12:08:58.137Z,101919.59
2022-10-31T12:11:30.361Z,101922.13
2022-10-31T12:14:26.596Z,101927.16
2022-10-31T12:17:06.909Z,101929.03
2022-10-31T12:19:43.443Z,101919.75
2022-10-31T12:22:21.339Z,101913.50
2022-10-31T12:24:57.782Z,101915.00
2022-10-31T12:27:39.288Z,101910.44
2022-10-31T12:30:24.913Z,101899.31
2022-10-31T12:33:12.183Z,101924.31
2022-10-31T12:35:45.635Z,101920.22
2022-10-31T12:38:30.881Z,101917.69
2022-10-31T12:41:08.926Z,101917.53
2022-10-31T12:43:59.851Z,101917.69
2022-10-31T12:46:55.480Z,101912.97
2022-10-31T12:49:37.085Z,101912.59
2022-10-31T12:52:15.658Z,101899.63
2022-10-31T12:54:52.863Z,101911.28
2022-10-31T12:57:55.456Z,101910.09
2022-10-31T13:00:24.227Z,101893.38
2022-10-31T13:02:57.458Z,101898.41
2022-10-31T13:05:45.534Z,101901.78
2022-10-31T13:08:15.382Z,101905.13
2022-10-31T13:10:50.237Z,101900.91
2022-10-31T13:13:22.692Z,101901.56
2022-10-31T13:15:54.439Z,101899.19
2022-10-31T13:18:39.485Z,101892.22
2022-10-31T13:21:12.712Z,101895.47
2022-10-31T13:23:56.607Z,101893.78
2022-10-31T13:26:38.173Z,101888.91
2022-10-31T13:29:16.665Z,101874.22
2022-10-31T13:31:43.678Z,101866.72
2022-10-31T13:34:26.569Z,101857.78
2022-10-31T13:37:05.216Z,101848.00
2022-10-31T13:39:50.373Z,101854.84
2022-10-31T13:42:32.576Z,101849.97
2022-10-31T13:45:13.395Z,101842.56
2022-10-31T13:47:42.231Z,101842.44
2022-10-31T13:50:24.491Z,101835.84
2022-10-31T13:52:51.009Z,101825.72
2022-10-31T13:55:43.890Z,101826.25
2022-10-31T13:58:25.016Z,101828.59
2022-10-31T14:01:14.649Z,101834.66
2022-10-31T14:04:04.996Z,101815.44
2022-10-31T14:07:00.412Z,101810.19
2022-10-31T14:09:31.000Z,101799.91
2022-10-31T14:12:01.835Z,101805.47
2022-10-31T14:14:34.916Z,101793.66
2022-10-31T14:17:02.364Z,101810.88
2022-10-31T14:19:28.914Z,101783.19
2022-10-31T14:21:59.414Z,101779.81
2022-10-31T14:24:27.608Z,101777.28
2022-10-31T14:26:57.100Z,101771.88
2022-10-31T14:29:33.207Z,101730.34
2022-10-31T14:32:04.019Z,101775.06
2022-10-31T14:34:45.422Z,101790.78
2022-10-31T14:37:32.787Z,101777.63
2022-10-31T14:40:36.234Z,101770.53
2022-10-31T14:43:44.364Z,101739.31
2022-10-31T14:46:25.800Z,101721.91
2022-10-31T14:49:21.375Z,101730.50
2022-10-31T14:51:51.678Z,101735.75
2022-10-31T14:54:40.377Z,101743.25
2022-10-31T14:57:28.826Z,101704.75
2022-10-31T15:00:05.682Z,101773.94
2022-10-31T15:02:43.944Z,101731.03
2022-10-31T15:05:40.680Z,101693.22
2022-10-31T15:08:37.707Z,101689.94
2022-10-31T15:11:27.571Z,101689.25
2022-10-31T15:14:31.096Z,101744.13
2022-10-31T15:17:34.472Z,101690.09
2022-10-31T15:20:07.969Z,101733.63
2022-10-31T15:22:35.366Z,101742.59
2022-10-31T15:25:02.630Z,101765.31
2022-10-31T15:27:38.223Z,101717.63
2022-10-31T15:30:28.710Z,101679.81
2022-10-31T15:32:59.740Z,101683.94
2022-10-31T15:35:34.777Z,101701.53
2022-10-31T15:38:18.677Z,101689.69
2022-10-31T15:41:17.273Z,101691.59
2022-10-31T15:43:53.216Z,101683.09
2022-10-31T15:46:27.837Z,101631.44
2022-10-31T15:48:59.191Z,101663.28
2022-10-31T15:51:44.878Z,101631.84
2022-10-31T15:54:29.663Z,101663.16
2022-10-31T15:57:00.183Z,101597.88
2022-10-31T15:59:37.888Z,101621.25
2022-10-31T16:05:41.868Z,101681.84
2022-10-31T16:09:07.449Z,101671.53
2022-10-31T16:15:49.298Z,101635.91
2022-10-31T16:18:50.810Z,101696.59
2022-10-31T16:21:27.071Z,101654.69
2022-10-31T16:23:58.691Z,101623.53
2022-10-31T16:26:26.107Z,101680.34
2022-10-31T16:29:03.386Z,101683.94
2022-10-31T16:31:39.318Z,101683.09
2022-10-31T16:34:14.104Z,101678.03
2022-10-31T16:36:40.924Z,101664.66
2022-10-31T16:39:08.635Z,101665.06
2022-10-31T16:41:43.880Z,101664.34
2022-10-31T16:44:27.668Z,101684.72
2022-10-31T16:47:15.331Z,101685.56
2022-10-31T16:49:50.335Z,101681.25
2022-10-31T16:52:17.961Z,101677.72
2022-10-31T16:54:44.756Z,101681.25
2022-10-31T16:57:27.766Z,101657.22
2022-10-31T16:59:57.206Z,101671.03
2022-10-31T17:02:23.871Z,101653.81
2022-10-31T17:04:53.741Z,101667.97
2022-10-31T17:07:23.266Z,101678.56
2022-10-31T17:09:49.748Z,101665.13
2022-10-31T17:12:22.504Z,101655.13
2022-10-31T17:14:51.788Z,101665.66
2022-10-31T17:17:18.484Z,101649.28
2022-10-31T17:19:44.835Z,101658.72
2022-10-31T17:22:13.159Z,101641.94
2022-10-31T17:24:39.586Z,101633.06
2022-10-31T17:27:06.086Z,101620.25
2022-10-31T17:29:32.807Z,101624.47
2022-10-31T17:32:00.317Z,101638.72
2022-10-31T17:34:26.752Z,101637.66
2022-10-31T17:36:53.604Z,101643.75
2022-10-31T17:39:20.345Z,101657.03
2022-10-31T17:41:49.840Z,101653.66
2022-10-31T17:44:16.231Z,101637.25
2022-10-31T17:46:42.678Z,101640.94
2022-10-31T17:49:14.016Z,101643.19
2022-10-31T17:51:40.541Z,101654.94
2022-10-31T17:54:08.756Z,101643.13
2022-10-31T17:56:35.298Z,101636.19
2022-10-31T17:59:02.104Z,101643.25
2022-10-31T18:01:28.590Z,101642.94
2022-10-31T18:03:55.228Z,101634.66
2022-10-31T18:06:21.561Z,101633.09
2022-10-31T18:08:47.979Z,101625.94
2022-10-31T18:11:17.166Z,101631.56
2022-10-31T18:13:43.668Z,101641.72
2022-10-31T18:16:12.854Z,101627.03
2022-10-31T18:18:39.751Z,101628.72
2022-10-31T18:21:06.286Z,101606.75
2022-10-31T18:23:32.730Z,101601.38
2022-10-31T18:25:59.099Z,101614.88
2022-10-31T18:28:25.557Z,101601.06
2022-10-31T18:30:51.962Z,101603.63
2022-10-31T18:33:18.430Z,101591.19
2022-10-31T18:35:45.253Z,101586.66
2022-10-31T18:38:12.086Z,101592.88
2022-10-31T18:40:39.248Z,101595.06
2022-10-31T18:43:05.967Z,101598.75
2022-10-31T18:45:45.740Z,101590.19
2022-10-31T18:48:14.823Z,101599.59
2022-10-31T18:50:41.611Z,101574.44
2022-10-31T18:53:08.028Z,101594.41
2022-10-31T18:55:38.526Z,101590.88
2022-10-31T18:58:04.835Z,101587.66
2022-10-31T19:00:31.208Z,101579.44
2022-10-31T19:02:57.785Z,101570.13
2022-10-31T19:05:24.269Z,101563.69
2022-10-31T19:07:50.634Z,101595.06
2022-10-31T19:10:17.114Z,101598.94
2022-10-31T19:12:43.551Z,101609.38
2022-10-31T19:15:10.492Z,101584.25
2022-10-31T19:17:36.816Z,101582.97
2022-10-31T19:20:03.582Z,101577.97
2022-10-31T19:22:31.325Z,101567.13
2022-10-31T19:24:57.736Z,101575.59
2022-10-31T19:27:26.707Z,101551.25
2022-10-31T19:29:53.080Z,101580.97
2022-10-31T19:32:19.495Z,101573.66
2022-10-31T19:34:45.878Z,101576.59
2022-10-31T19:37:12.251Z,101555.78
2022-10-31T19:39:43.719Z,101530.81
2022-10-31T19:42:11.047Z,101544.03
2022-10-31T19:44:37.515Z,101524.16
2022-10-31T19:47:03.890Z,101513.16
2022-10-31T19:49:30.350Z,101498.88
2022-10-31T19:51:56.853Z,101492.66
2022-10-31T19:54:23.909Z,101506.25
2022-10-31T19:56:50.359Z,101507.94
2022-10-31T19:59:16.800Z,101504.81
2022-10-31T20:01:43.413Z,101498.97
2022-10-31T20:04:10.032Z,101497.28
2022-10-31T20:06:38.771Z,101471.19
2022-10-31T20:09:09.791Z,101481.16
2022-10-31T20:11:38.381Z,101484.84
2022-10-31T20:14:05.699Z,101463.34
2022-10-31T20:16:32.984Z,101446.69
2022-10-31T20:18:59.792Z,101454.00
2022-10-31T20:21:28.774Z,101440.31
2022-10-31T20:24:00.693Z,101467.81
2022-10-31T20:26:28.413Z,101452.63
2022-10-31T20:28:58.701Z,101475.09
2022-10-31T20:31:26.447Z,101455.91
2022-10-31T20:33:53.609Z,101456.00
2022-10-31T20:36:23.393Z,101462.38
2022-10-31T20:38:51.314Z,101451.97
2022-10-31T20:41:17.870Z,101448.97
2022-10-31T20:43:44.856Z,101447.13
2022-10-31T20:46:14.274Z,101434.25
2022-10-31T20:48:41.068Z,101429.63
2022-10-31T20:53:43.711Z,101418.66
2022-10-31T20:56:18.497Z,101423.38
2022-10-31T20:58:45.782Z,101431.97
2022-10-31T21:01:13.809Z,101436.34
2022-10-31T21:03:42.933Z,101404.38
2022-10-31T21:06:10.931Z,101414.63
2022-10-31T21:08:38.122Z,101430.19
2022-10-31T21:11:11.505Z,101438.09
2022-10-31T21:13:40.787Z,101410.00
2022-10-31T21:16:17.736Z,101404.81
2022-10-31T21:18:45.212Z,101402.28
2022-10-31T21:21:18.186Z,101411.28
2022-10-31T21:23:45.463Z,101365.78
2022-10-31T21:26:15.374Z,101392.44
2022-10-31T21:28:42.580Z,101385.38
2022-10-31T21:31:14.578Z,101379.00
2022-10-31T21:33:41.868Z,101382.53
2022-10-31T21:36:09.125Z,101382.00
2022-10-31T21:38:36.079Z,101362.16
2022-10-31T21:41:05.479Z,101378.34
2022-10-31T21:43:34.694Z,101366.94
2022-10-31T21:46:11.566Z,101370.66
2022-10-31T21:48:41.397Z,101366.44
2022-10-31T21:51:34.995Z,101362.75
2022-10-31T21:54:20.314Z,101372.34
2022-10-31T21:56:46.940Z,101350.44
2022-10-31T21:59:13.541Z,101349.44
2022-10-31T22:01:40.156Z,101357.19
2022-10-31T22:04:06.712Z,101352.50
2022-10-31T22:06:33.284Z,101331.13
2022-10-31T22:09:01.422Z,101343.91
2022-10-31T22:11:28.746Z,101340.75
2022-10-31T22:13:55.699Z,101320.72
2022-10-31T22:16:24.205Z,101319.91
2022-10-31T22:18:56.042Z,101314.53
2022-10-31T22:21:25.123Z,101312.31
2022-10-31T22:24:01.954Z,101295.88
2022-10-31T22:26:31.873Z,101296.19
2022-10-31T22:29:01.978Z,101302.19
2022-10-31T22:31:29.709Z,101305.94
2022-10-31T22:33:57.116Z,101301.72
2022-10-31T22:36:26.724Z,101299.56
2022-10-31T22:38:53.601Z,101293.34
2022-10-31T22:41:22.822Z,101292.50
2022-10-31T22:43:49.805Z,101268.28
2022-10-31T22:46:19.321Z,101283.59
2022-10-31T22:48:48.410Z,101283.38
2022-10-31T22:51:19.324Z,101286.44
2022-10-31T22:53:47.008Z,101292.81
2022-10-31T22:56:20.234Z,101283.75
2022-10-31T22:58:47.659Z,101275.00
2022-10-31T23:01:19.688Z,101265.06
2022-10-31T23:03:47.044Z,101264.00
2022-10-31T23:06:16.634Z,101286.59
2022-10-31T23:08:44.072Z,101262.31
2022-10-31T23:11:15.760Z,101262.69
2022-10-31T23:14:00.788Z,101269.28
2022-10-31T23:16:27.198Z,101270.78
2022-10-31T23:18:53.579Z,101246.41
2022-10-31T23:21:40.406Z,101253.31
2022-10-31T23:24:06.913Z,101252.78
2022-10-31T23:26:52.087Z,101244.38
2022-10-31T23:29:18.492Z,101227.38
2022-10-31T23:31:44.886Z,101235.31
2022-10-31T23:34:11.821Z,101225.84
2022-10-31T23:36:38.361Z,101211.59
2022-10-31T23:39:04.726Z,101238.34
2022-10-31T23:41:31.085Z,101232.94
2022-10-31T23:43:57.538Z,101218.13
2022-10-31T23:46:23.949Z,101209.06
2022-10-31T23:48:51.100Z,101199.81
2022-10-31T23:51:17.585Z,101204.00
2022-10-31T23:53:45.441Z,101210.41
2022-10-31T23:56:12.772Z,101210.06
2022-10-31T23:58:39.249Z,101193.59
